createdAt,value
2022-10-13T00:00:02.107Z,1003.86
2022-10-13T00:01:02.187Z,1003.83
2022-10-13T00:02:02.145Z,1003.81
2022-10-13T00:03:02.164Z,1003.81
2022-10-13T00:04:02.182Z,1003.79
2022-10-13T00:05:02.199Z,1003.84
2022-10-13T00:06:02.222Z,1003.85
2022-10-13T00:07:02.236Z,1003.85
2022-10-13T00:08:02.257Z,1003.85
2022-10-13T00:09:02.271Z,1003.86
2022-10-13T00:10:02.291Z,1003.86
2022-10-13T00:11:02.307Z,1003.89
2022-10-13T00:12:02.327Z,1003.85
2022-10-13T00:13:02.335Z,1003.85
2022-10-13T00:14:02.359Z,1003.87
2022-10-13T00:15:02.381Z,1003.83
2022-10-13T00:16:02.402Z,1003.8
2022-10-13T00:17:02.438Z,1003.84
2022-10-13T00:18:02.435Z,1003.84
2022-10-13T00:19:02.469Z,1003.83
2022-10-13T00:20:02.467Z,1003.82
2022-10-13T00:21:02.884Z,1003.83
2022-10-13T00:22:02.509Z,1003.79
2022-10-13T00:23:02.523Z,1003.78
2022-10-13T00:24:02.536Z,1003.76
2022-10-13T00:25:02.565Z,1003.79
2022-10-13T00:26:02.576Z,1003.83
2022-10-13T00:27:02.597Z,1003.81
2022-10-13T00:28:02.619Z,1003.79
2022-10-13T00:29:02.715Z,1003.83
2022-10-13T00:30:02.653Z,1003.83
2022-10-13T00:31:02.676Z,1003.88
2022-10-13T00:32:02.682Z,1003.84
2022-10-13T00:33:02.872Z,1003.85
2022-10-13T00:34:02.723Z,1003.87
2022-10-13T00:35:02.945Z,1003.87
2022-10-13T00:36:02.958Z,1003.8
2022-10-13T00:37:02.871Z,1003.83
2022-10-13T00:38:02.894Z,1003.79
2022-10-13T00:39:02.918Z,1003.86
2022-10-13T00:40:02.930Z,1003.77
2022-10-13T00:41:02.954Z,1003.75
2022-10-13T00:42:02.862Z,1003.79
2022-10-13T00:43:02.931Z,1003.79
2022-10-13T00:44:02.905Z,1003.77
2022-10-13T00:45:02.926Z,1003.72
2022-10-13T00:46:02.937Z,1003.73
2022-10-13T00:47:02.957Z,1003.73
2022-10-13T00:48:02.968Z,1003.71
2022-10-13T00:49:03.018Z,1003.72
2022-10-13T00:50:03.010Z,1003.76
2022-10-13T00:51:03.032Z,1003.76
2022-10-13T00:52:03.041Z,1003.77
2022-10-13T00:53:03.061Z,1003.8
2022-10-13T00:54:03.079Z,1003.8
2022-10-13T00:55:03.097Z,1003.79
2022-10-13T00:56:03.111Z,1003.81
2022-10-13T00:57:03.132Z,1003.83
2022-10-13T00:58:05.280Z,1003.8
2022-10-13T00:59:03.168Z,1003.81
2022-10-13T01:00:03.184Z,1003.82
2022-10-13T01:01:03.239Z,1003.78
2022-10-13T01:02:03.220Z,1003.77
2022-10-13T01:03:03.236Z,1003.78
2022-10-13T01:04:03.253Z,1003.81
2022-10-13T01:05:03.291Z,1003.77
2022-10-13T01:06:03.291Z,1003.75
2022-10-13T01:07:03.310Z,1003.75
2022-10-13T01:08:03.323Z,1003.78
2022-10-13T01:09:03.349Z,1003.76
2022-10-13T01:10:03.358Z,1003.75
2022-10-13T01:11:03.374Z,1003.72
2022-10-13T01:12:03.392Z,1003.74
2022-10-13T01:13:03.412Z,1003.69
2022-10-13T01:14:03.434Z,1003.71
2022-10-13T01:15:03.455Z,1003.7
2022-10-13T01:16:03.465Z,1003.68
2022-10-13T01:17:03.480Z,1003.64
2022-10-13T01:18:03.503Z,1003.64
2022-10-13T01:19:03.523Z,1003.66
2022-10-13T01:20:03.535Z,1003.63
2022-10-13T01:21:03.776Z,1003.63
2022-10-13T01:22:03.570Z,1003.62
2022-10-13T01:23:03.589Z,1003.6
2022-10-13T01:24:03.608Z,1003.59
2022-10-13T01:25:03.624Z,1003.59
2022-10-13T01:26:03.643Z,1003.57
2022-10-13T01:27:03.666Z,1003.58
2022-10-13T01:28:03.680Z,1003.53
2022-10-13T01:29:03.695Z,1003.53
2022-10-13T01:30:03.711Z,1003.56
2022-10-13T01:31:03.750Z,1003.57
2022-10-13T01:32:03.750Z,1003.56
2022-10-13T01:33:03.767Z,1003.52
2022-10-13T01:34:03.789Z,1003.53
2022-10-13T01:35:03.800Z,1003.52
2022-10-13T01:36:03.820Z,1003.53
2022-10-13T01:37:03.861Z,1003.52
2022-10-13T01:38:03.859Z,1003.49
2022-10-13T01:39:03.876Z,1003.47
2022-10-13T01:40:03.891Z,1003.46
2022-10-13T01:41:03.907Z,1003.44
2022-10-13T01:42:03.933Z,1003.4
2022-10-13T01:43:03.947Z,1003.4
2022-10-13T01:44:03.971Z,1003.36
2022-10-13T01:45:03.988Z,1003.36
2022-10-13T01:46:04.000Z,1003.34
2022-10-13T01:47:04.019Z,1003.36
2022-10-13T01:48:04.037Z,1003.35
2022-10-13T01:49:04.056Z,1003.34
2022-10-13T01:50:04.073Z,1003.32
2022-10-13T01:51:04.089Z,1003.28
2022-10-13T01:52:04.107Z,1003.28
2022-10-13T01:53:04.153Z,1003.27
2022-10-13T01:54:04.147Z,1003.21
2022-10-13T01:55:04.161Z,1003.2
2022-10-13T01:56:04.181Z,1003.23
2022-10-13T01:57:04.197Z,1003.17
2022-10-13T01:58:04.220Z,1003.15
2022-10-13T01:59:04.237Z,1003.1
2022-10-13T02:00:04.253Z,1003.13
2022-10-13T02:01:04.294Z,1003.11
2022-10-13T02:02:04.292Z,1003.11
2022-10-13T02:03:04.305Z,1003.09
2022-10-13T02:04:04.327Z,1003.11
2022-10-13T02:05:04.341Z,1003.13
2022-10-13T02:06:04.356Z,1003.1
2022-10-13T02:07:04.376Z,1003.08
2022-10-13T02:08:04.395Z,1003.09
2022-10-13T02:09:04.540Z,1003.09
2022-10-13T02:10:04.432Z,1003.05
2022-10-13T02:11:04.450Z,1003.1
2022-10-13T02:12:04.463Z,1003.09
2022-10-13T02:13:04.486Z,1003.07
2022-10-13T02:14:04.496Z,1003.06
2022-10-13T02:15:04.520Z,1003.04
2022-10-13T02:16:04.539Z,1002.99
2022-10-13T02:17:04.558Z,1002.94
2022-10-13T02:18:04.572Z,1002.92
2022-10-13T02:19:04.593Z,1002.95
2022-10-13T02:20:04.608Z,1002.91
2022-10-13T02:21:04.675Z,1002.91
2022-10-13T02:22:04.643Z,1002.88
2022-10-13T02:23:04.662Z,1002.87
2022-10-13T02:24:04.673Z,1002.83
2022-10-13T02:25:04.744Z,1002.81
2022-10-13T02:26:04.716Z,1002.81
2022-10-13T02:27:04.735Z,1002.78
2022-10-13T02:28:04.744Z,1002.82
2022-10-13T02:29:04.769Z,1002.78
2022-10-13T02:30:04.784Z,1002.83
2022-10-13T02:31:04.804Z,1002.8
2022-10-13T02:32:04.818Z,1002.8
2022-10-13T02:33:04.841Z,1002.8
2022-10-13T02:34:04.857Z,1002.81
2022-10-13T02:35:04.874Z,1002.84
2022-10-13T02:36:04.892Z,1002.81
2022-10-13T02:37:04.911Z,1002.83
2022-10-13T02:38:04.928Z,1002.82
2022-10-13T02:39:04.948Z,1002.81
2022-10-13T02:40:04.959Z,1002.77
2022-10-13T02:41:05.006Z,1002.79
2022-10-13T02:42:04.997Z,1002.75
2022-10-13T02:43:05.017Z,1002.77
2022-10-13T02:44:05.031Z,1002.8
2022-10-13T02:45:05.054Z,1002.78
2022-10-13T02:46:05.069Z,1002.78
2022-10-13T02:47:05.089Z,1002.77
2022-10-13T02:48:05.103Z,1002.78
2022-10-13T02:49:05.125Z,1002.84
2022-10-13T02:50:05.136Z,1002.85
2022-10-13T02:51:05.159Z,1002.85
2022-10-13T02:52:05.175Z,1002.85
2022-10-13T02:53:05.194Z,1002.82
2022-10-13T02:54:05.210Z,1002.86
2022-10-13T02:55:05.233Z,1002.81
2022-10-13T02:56:05.245Z,1002.79
2022-10-13T02:57:05.288Z,1002.78
2022-10-13T02:58:05.282Z,1002.76
2022-10-13T02:59:05.298Z,1002.77
2022-10-13T03:00:05.317Z,1002.72
2022-10-13T03:01:05.357Z,1002.76
2022-10-13T03:02:05.354Z,1002.75
2022-10-13T03:03:05.370Z,1002.79
2022-10-13T03:04:05.388Z,1002.81
2022-10-13T03:05:05.404Z,1002.82
2022-10-13T03:06:05.423Z,1002.79
2022-10-13T03:07:05.441Z,1002.81
2022-10-13T03:08:05.463Z,1002.81
2022-10-13T03:09:05.477Z,1002.82
2022-10-13T03:10:05.500Z,1002.78
2022-10-13T03:11:05.510Z,1002.78
2022-10-13T03:12:05.530Z,1002.81
2022-10-13T03:13:05.568Z,1002.78
2022-10-13T03:14:05.564Z,1002.76
2022-10-13T03:15:05.593Z,1002.78
2022-10-13T03:16:05.601Z,1002.78
2022-10-13T03:17:07.825Z,1002.79
2022-10-13T03:18:05.637Z,1002.79
2022-10-13T03:19:05.652Z,1002.78
2022-10-13T03:20:05.673Z,1002.79
2022-10-13T03:21:05.790Z,1002.8
2022-10-13T03:22:05.709Z,1002.78
2022-10-13T03:23:05.724Z,1002.75
2022-10-13T03:24:05.744Z,1002.76
2022-10-13T03:25:05.760Z,1002.79
2022-10-13T03:26:05.777Z,1002.78
2022-10-13T03:27:05.797Z,1002.81
2022-10-13T03:28:05.816Z,1002.8
2022-10-13T03:29:05.851Z,1002.73
2022-10-13T03:30:05.852Z,1002.76
2022-10-13T03:31:05.877Z,1002.77
2022-10-13T03:32:05.887Z,1002.79
2022-10-13T03:33:05.903Z,1002.77
2022-10-13T03:34:05.920Z,1002.79
2022-10-13T03:35:05.936Z,1002.79
2022-10-13T03:36:05.958Z,1002.82
2022-10-13T03:37:05.971Z,1002.81
2022-10-13T03:38:05.995Z,1002.79
2022-10-13T03:39:06.006Z,1002.84
2022-10-13T03:40:06.029Z,1002.78
2022-10-13T03:41:06.044Z,1002.81
2022-10-13T03:42:06.061Z,1002.83
2022-10-13T03:43:06.079Z,1002.8
2022-10-13T03:44:06.098Z,1002.79
2022-10-13T03:45:06.137Z,1002.79
2022-10-13T03:46:06.134Z,1002.76
2022-10-13T03:47:06.146Z,1002.81
2022-10-13T03:48:06.169Z,1002.83
2022-10-13T03:49:06.189Z,1002.81
2022-10-13T03:50:06.202Z,1002.84
2022-10-13T03:51:06.222Z,1002.88
2022-10-13T03:52:06.238Z,1002.86
2022-10-13T03:53:06.258Z,1002.87
2022-10-13T03:54:06.272Z,1002.9
2022-10-13T03:55:06.291Z,1002.91
2022-10-13T03:56:06.308Z,1002.87
2022-10-13T03:57:06.328Z,1002.81
2022-10-13T03:58:06.345Z,1002.82
2022-10-13T03:59:06.361Z,1002.85
2022-10-13T04:00:06.378Z,1002.82
2022-10-13T04:01:06.420Z,1002.8
2022-10-13T04:02:06.452Z,1002.81
2022-10-13T04:03:06.431Z,1002.82
2022-10-13T04:04:06.448Z,1002.81
2022-10-13T04:05:06.468Z,1002.82
2022-10-13T04:06:06.484Z,1002.85
2022-10-13T04:07:06.502Z,1002.87
2022-10-13T04:08:06.517Z,1002.89
2022-10-13T04:09:06.541Z,1002.87
2022-10-13T04:10:10.274Z,1002.89
2022-10-13T04:11:06.576Z,1002.87
2022-10-13T04:12:06.590Z,1002.86
2022-10-13T04:13:06.612Z,1002.84
2022-10-13T04:14:06.627Z,1002.79
2022-10-13T04:15:06.645Z,1002.79
2022-10-13T04:16:06.659Z,1002.75
2022-10-13T04:17:06.702Z,1002.73
2022-10-13T04:18:06.696Z,1002.71
2022-10-13T04:19:06.715Z,1002.76
2022-10-13T04:20:06.731Z,1002.73
2022-10-13T04:21:06.849Z,1002.75
2022-10-13T04:22:06.763Z,1002.7
2022-10-13T04:23:06.784Z,1002.67
2022-10-13T04:24:06.800Z,1002.72
2022-10-13T04:25:06.822Z,1002.68
2022-10-13T04:26:06.832Z,1002.65
2022-10-13T04:27:06.857Z,1002.64
2022-10-13T04:28:06.870Z,1002.71
2022-10-13T04:29:06.899Z,1002.68
2022-10-13T04:30:06.906Z,1002.69
2022-10-13T04:31:06.924Z,1002.68
2022-10-13T04:32:06.941Z,1002.65
2022-10-13T04:33:06.983Z,1002.62
2022-10-13T04:34:06.972Z,1002.66
2022-10-13T04:35:06.994Z,1002.61
2022-10-13T04:36:07.008Z,1002.58
2022-10-13T04:37:07.027Z,1002.61
2022-10-13T04:38:07.047Z,1002.61
2022-10-13T04:39:07.066Z,1002.62
2022-10-13T04:40:07.081Z,1002.63
2022-10-13T04:41:07.099Z,1002.61
2022-10-13T04:42:07.120Z,1002.63
2022-10-13T04:43:07.131Z,1002.58
2022-10-13T04:44:07.149Z,1002.59
2022-10-13T04:45:07.170Z,1002.62
2022-10-13T04:46:07.189Z,1002.59
2022-10-13T04:47:07.204Z,1002.6
2022-10-13T04:48:07.221Z,1002.59
2022-10-13T04:49:07.262Z,1002.58
2022-10-13T04:50:07.258Z,1002.6
2022-10-13T04:51:07.272Z,1002.59
2022-10-13T04:52:07.292Z,1002.59
2022-10-13T04:53:07.307Z,1002.59
2022-10-13T04:54:07.324Z,1002.58
2022-10-13T04:55:07.346Z,1002.53
2022-10-13T04:56:07.361Z,1002.54
2022-10-13T04:57:07.380Z,1002.53
2022-10-13T04:58:07.399Z,1002.45
2022-10-13T04:59:07.410Z,1002.45
2022-10-13T05:00:07.432Z,1002.43
2022-10-13T05:01:07.484Z,1002.45
2022-10-13T05:02:07.464Z,1002.48
2022-10-13T05:03:07.482Z,1002.43
2022-10-13T05:04:07.497Z,1002.43
2022-10-13T05:05:07.546Z,1002.39
2022-10-13T05:06:07.534Z,1002.39
2022-10-13T05:07:23.020Z,1002.36
2022-10-13T05:08:07.571Z,1002.4
2022-10-13T05:09:07.584Z,1002.4
2022-10-13T05:10:07.605Z,1002.39
2022-10-13T05:11:07.620Z,1002.4
2022-10-13T05:12:07.639Z,1002.4
2022-10-13T05:13:07.653Z,1002.43
2022-10-13T05:14:07.672Z,1002.38
2022-10-13T05:15:07.691Z,1002.33
2022-10-13T05:16:07.710Z,1002.33
2022-10-13T05:17:07.725Z,1002.28
2022-10-13T05:18:07.746Z,1002.28
2022-10-13T05:19:07.761Z,1002.29
2022-10-13T05:20:07.779Z,1002.27
2022-10-13T05:21:08.020Z,1002.22
2022-10-13T05:22:07.817Z,1002.21
2022-10-13T05:23:07.832Z,1002.24
2022-10-13T05:24:07.852Z,1002.22
2022-10-13T05:25:07.868Z,1002.2
2022-10-13T05:26:07.885Z,1002.24
2022-10-13T05:27:07.900Z,1002.23
2022-10-13T05:28:07.923Z,1002.24
2022-10-13T05:29:07.936Z,1002.19
2022-10-13T05:30:07.954Z,1002.22
2022-10-13T05:31:07.970Z,1002.19
2022-10-13T05:32:07.988Z,1002.21
2022-10-13T05:33:08.009Z,1002.19
2022-10-13T05:34:08.030Z,1002.21
2022-10-13T05:35:08.043Z,1002.19
2022-10-13T05:36:08.061Z,1002.19
2022-10-13T05:37:08.209Z,1002.13
2022-10-13T05:38:08.093Z,1002.16
2022-10-13T05:39:08.113Z,1002.12
2022-10-13T05:40:08.127Z,1002.15
2022-10-13T05:41:08.147Z,1002.14
2022-10-13T05:42:08.162Z,1002.13
2022-10-13T05:43:08.183Z,1002.15
2022-10-13T05:44:08.192Z,1002.17
2022-10-13T05:45:08.215Z,1002.15
2022-10-13T05:46:08.232Z,1002.13
2022-10-13T05:47:08.251Z,1002.12
2022-10-13T05:48:08.268Z,1002.11
2022-10-13T05:49:08.304Z,1002.13
2022-10-13T05:50:08.301Z,1002.11
2022-10-13T05:51:08.323Z,1002.11
2022-10-13T05:52:08.335Z,1002.1
2022-10-13T05:53:08.388Z,1002.08
2022-10-13T05:54:08.366Z,1002.1
2022-10-13T05:55:08.392Z,1002.11
2022-10-13T05:56:08.405Z,1002.04
2022-10-13T05:57:08.454Z,1002.05
2022-10-13T05:58:08.441Z,1002.06
2022-10-13T05:59:08.459Z,1002.07
2022-10-13T06:00:08.479Z,1002.13
2022-10-13T06:01:08.494Z,1002.1
2022-10-13T06:02:08.599Z,1002.09
2022-10-13T06:03:08.533Z,1002.07
2022-10-13T06:04:08.548Z,1002.05
2022-10-13T06:05:08.569Z,1002.07
2022-10-13T06:06:08.581Z,1002.06
2022-10-13T06:07:08.602Z,1002.06
2022-10-13T06:08:08.617Z,1002.06
2022-10-13T06:09:08.661Z,1002.07
2022-10-13T06:10:08.652Z,1002.08
2022-10-13T06:11:08.673Z,1002.07
2022-10-13T06:12:08.687Z,1002.1
2022-10-13T06:13:08.706Z,1002.09
2022-10-13T06:14:08.722Z,1002.09
2022-10-13T06:15:08.742Z,1002.13
2022-10-13T06:16:08.757Z,1002.1
2022-10-13T06:17:08.776Z,1002.1
2022-10-13T06:18:08.790Z,1002.09
2022-10-13T06:19:08.812Z,1002.12
2022-10-13T06:20:08.831Z,1002.1
2022-10-13T06:21:08.950Z,1002.02
2022-10-13T06:22:08.864Z,1002.08
2022-10-13T06:23:08.880Z,1002.03
2022-10-13T06:24:08.898Z,1002.03
2022-10-13T06:25:08.945Z,1002.02
2022-10-13T06:26:08.933Z,1002.03
2022-10-13T06:27:08.952Z,1002.04
2022-10-13T06:28:08.969Z,1002.07
2022-10-13T06:29:09.011Z,1002.07
2022-10-13T06:30:09.002Z,1002.09
2022-10-13T06:31:09.020Z,1002.09
2022-10-13T06:32:09.039Z,1002.06
2022-10-13T06:33:09.055Z,1002.07
2022-10-13T06:34:09.076Z,1002.09
2022-10-13T06:35:09.088Z,1002.1
2022-10-13T06:36:09.114Z,1002.09
2022-10-13T06:37:09.123Z,1002.11
2022-10-13T06:38:09.144Z,1002.1
2022-10-13T06:39:09.164Z,1002.07
2022-10-13T06:40:09.179Z,1002.12
2022-10-13T06:41:09.232Z,1002.14
2022-10-13T06:42:09.215Z,1002.15
2022-10-13T06:43:09.232Z,1002.11
2022-10-13T06:44:09.249Z,1002.18
2022-10-13T06:45:09.265Z,1002.19
2022-10-13T06:46:09.286Z,1002.19
2022-10-13T06:47:09.302Z,1002.17
2022-10-13T06:48:09.320Z,1002.11
2022-10-13T06:49:09.334Z,1002.07
2022-10-13T06:50:09.357Z,1002.07
2022-10-13T06:51:09.371Z,1002.11
2022-10-13T06:52:09.393Z,1002.14
2022-10-13T06:53:09.406Z,1002.13
2022-10-13T06:54:09.426Z,1002.14
2022-10-13T06:55:09.450Z,1002.18
2022-10-13T06:56:09.461Z,1002.17
2022-10-13T06:57:09.542Z,1002.14
2022-10-13T06:58:09.531Z,1002.12
2022-10-13T06:59:09.513Z,1002.15
2022-10-13T07:00:09.535Z,1002.14
2022-10-13T07:01:09.602Z,1002.07
2022-10-13T07:02:09.566Z,1002.05
2022-10-13T07:03:09.587Z,1002.02
2022-10-13T07:04:09.605Z,1001.97
2022-10-13T07:05:09.621Z,1001.91
2022-10-13T07:06:09.638Z,1001.98
2022-10-13T07:07:09.658Z,1002.02
2022-10-13T07:08:09.676Z,1001.95
2022-10-13T07:09:09.696Z,1001.97
2022-10-13T07:10:09.712Z,1002.01
2022-10-13T07:11:15.232Z,1001.99
2022-10-13T07:12:09.749Z,1001.95
2022-10-13T07:13:09.824Z,1001.99
2022-10-13T07:14:09.779Z,1001.95
2022-10-13T07:15:09.802Z,1001.99
2022-10-13T07:16:09.815Z,1001.99
2022-10-13T07:17:09.833Z,1001.89
2022-10-13T07:18:09.851Z,1001.84
2022-10-13T07:19:09.872Z,1001.85
2022-10-13T07:20:09.886Z,1001.87
2022-10-13T07:21:10.104Z,1001.91
2022-10-13T07:22:09.923Z,1001.95
2022-10-13T07:23:09.948Z,1001.99
2022-10-13T07:24:09.958Z,1002
2022-10-13T07:25:09.975Z,1001.89
2022-10-13T07:26:10.004Z,1001.91
2022-10-13T07:27:10.011Z,1001.8
2022-10-13T07:28:10.027Z,1001.78
2022-10-13T07:29:10.071Z,1001.89
2022-10-13T07:30:10.065Z,1001.96
2022-10-13T07:31:10.081Z,1002.01
2022-10-13T07:32:10.103Z,1001.92
2022-10-13T07:33:10.122Z,1001.81
2022-10-13T07:34:10.136Z,1001.78
2022-10-13T07:35:10.154Z,1001.72
2022-10-13T07:36:10.170Z,1001.77
2022-10-13T07:37:10.192Z,1001.81
2022-10-13T07:38:10.206Z,1001.81
2022-10-13T07:39:10.229Z,1001.85
2022-10-13T07:40:10.246Z,1001.85
2022-10-13T07:41:10.263Z,1001.79
2022-10-13T07:42:10.275Z,1001.8
2022-10-13T07:43:10.296Z,1001.85
2022-10-13T07:44:10.314Z,1001.88
2022-10-13T07:45:10.357Z,1001.89
2022-10-13T07:46:10.348Z,1001.88
2022-10-13T07:47:10.368Z,1001.88
2022-10-13T07:48:10.455Z,1001.81
2022-10-13T07:49:11.267Z,1001.7
2022-10-13T07:50:10.419Z,1001.7
2022-10-13T07:51:10.441Z,1001.74
2022-10-13T07:52:10.455Z,1001.71
2022-10-13T07:53:10.482Z,1001.66
2022-10-13T07:54:10.492Z,1001.74
2022-10-13T07:55:10.511Z,1001.72
2022-10-13T07:56:10.528Z,1001.68
2022-10-13T07:57:10.547Z,1001.65
2022-10-13T07:58:10.579Z,1001.68
2022-10-13T07:59:10.583Z,1001.75
2022-10-13T08:00:10.601Z,1001.81
2022-10-13T08:01:10.642Z,1001.79
2022-10-13T08:02:10.637Z,1001.76
2022-10-13T08:03:10.656Z,1001.73
2022-10-13T08:04:10.669Z,1001.76
2022-10-13T08:05:10.691Z,1001.86
2022-10-13T08:06:10.710Z,1001.87
2022-10-13T08:07:10.734Z,1001.87
2022-10-13T08:08:10.745Z,1001.83
2022-10-13T08:09:10.760Z,1001.86
2022-10-13T08:10:10.780Z,1001.86
2022-10-13T08:11:12.356Z,1001.89
2022-10-13T08:12:10.819Z,1001.86
2022-10-13T08:13:10.834Z,1001.86
2022-10-13T08:14:10.853Z,1001.84
2022-10-13T08:15:10.868Z,1001.83
2022-10-13T08:16:10.892Z,1001.78
2022-10-13T08:17:10.947Z,1001.8
2022-10-13T08:18:10.925Z,1001.8
2022-10-13T08:19:10.941Z,1001.78
2022-10-13T08:20:11.006Z,1001.79
2022-10-13T08:21:33.421Z,1001.79
2022-10-13T08:22:11.925Z,1001.81
2022-10-13T08:23:11.940Z,1001.85
2022-10-13T08:24:11.967Z,1001.82
2022-10-13T08:25:11.975Z,1001.8
2022-10-13T08:26:11.995Z,1001.78
2022-10-13T08:27:12.009Z,1001.75
2022-10-13T08:28:12.069Z,1001.76
2022-10-13T08:29:27.492Z,1001.84
2022-10-13T08:30:12.127Z,1001.82
2022-10-13T08:31:12.214Z,1001.86
2022-10-13T08:32:12.106Z,1001.88
2022-10-13T08:33:12.149Z,1001.86
2022-10-13T08:34:12.140Z,1001.9
2022-10-13T08:35:12.158Z,1001.88
2022-10-13T08:36:12.176Z,1001.91
2022-10-13T08:37:12.191Z,1001.84
2022-10-13T08:38:12.213Z,1001.89
2022-10-13T08:39:12.228Z,1001.87
2022-10-13T08:40:12.250Z,1001.88
2022-10-13T08:41:12.264Z,1001.84
2022-10-13T08:42:12.284Z,1001.85
2022-10-13T08:43:12.301Z,1001.83
2022-10-13T08:45:51.980Z,1001.85
2022-10-13T08:46:51.999Z,1001.89
2022-10-13T08:47:52.015Z,1001.89
2022-10-13T08:48:52.062Z,1001.87
2022-10-13T08:49:54.425Z,1001.83
2022-10-13T08:50:52.070Z,1001.86
2022-10-13T08:51:52.088Z,1001.82
2022-10-13T08:52:52.109Z,1001.82
2022-10-13T08:53:52.127Z,1001.82
2022-10-13T08:54:52.143Z,1001.83
2022-10-13T08:55:52.160Z,1001.87
2022-10-13T08:56:52.218Z,1001.81
2022-10-13T08:57:52.199Z,1001.83
2022-10-13T08:58:52.213Z,1001.79
2022-10-13T08:59:52.242Z,1001.82
2022-10-13T09:00:52.252Z,1001.8
2022-10-13T09:01:52.328Z,1001.81
2022-10-13T09:02:52.286Z,1001.83
2022-10-13T09:03:52.307Z,1001.86
2022-10-13T09:04:52.452Z,1001.87
2022-10-13T09:05:52.346Z,1001.81
2022-10-13T09:06:52.363Z,1001.75
2022-10-13T09:08:52.398Z,1001.72
2022-10-13T09:09:52.415Z,1001.78
2022-10-13T09:10:52.437Z,1001.78
2022-10-13T09:11:52.452Z,1001.78
2022-10-13T09:12:52.468Z,1001.78
2022-10-13T09:13:52.492Z,1001.78
2022-10-13T09:14:52.507Z,1001.82
2022-10-13T09:15:52.528Z,1001.74
2022-10-13T09:16:52.540Z,1001.77
2022-10-13T09:17:52.566Z,1001.77
2022-10-13T09:18:52.579Z,1001.81
2022-10-13T09:19:52.601Z,1001.85
2022-10-13T09:20:53.165Z,1001.79
2022-10-13T09:21:52.839Z,1001.79
2022-10-13T09:22:52.652Z,1001.91
2022-10-13T09:23:52.670Z,1001.85
2022-10-13T09:24:52.687Z,1001.88
2022-10-13T09:25:52.710Z,1001.86
2022-10-13T09:26:52.726Z,1001.89
2022-10-13T09:27:52.748Z,1001.88
2022-10-13T09:28:52.861Z,1001.9
2022-10-13T09:29:52.782Z,1001.91
2022-10-13T09:30:52.799Z,1001.88
2022-10-13T09:31:52.817Z,1001.9
2022-10-13T09:32:52.836Z,1001.92
2022-10-13T09:33:52.854Z,1001.9
2022-10-13T09:34:52.872Z,1001.85
2022-10-13T09:35:52.892Z,1001.85
2022-10-13T09:36:52.950Z,1001.85
2022-10-13T09:37:52.931Z,1001.87
2022-10-13T09:38:52.945Z,1001.82
2022-10-13T09:39:52.966Z,1001.86
2022-10-13T09:40:52.981Z,1001.8
2022-10-13T09:41:53.009Z,1001.78
2022-10-13T09:42:53.021Z,1001.72
2022-10-13T09:43:53.038Z,1001.81
2022-10-13T09:44:53.058Z,1001.78
2022-10-13T09:45:53.076Z,1001.73
2022-10-13T09:46:53.095Z,1001.81
2022-10-13T09:47:53.117Z,1001.79
2022-10-13T09:48:53.133Z,1001.79
2022-10-13T09:49:53.147Z,1001.73
2022-10-13T09:50:53.171Z,1001.78
2022-10-13T09:51:53.189Z,1001.79
2022-10-13T09:52:53.229Z,1001.72
2022-10-13T09:53:53.225Z,1001.78
2022-10-13T09:54:53.242Z,1001.77
2022-10-13T09:55:53.261Z,1001.75
2022-10-13T09:56:53.282Z,1001.76
2022-10-13T09:57:53.296Z,1001.75
2022-10-13T09:58:53.319Z,1001.71
2022-10-13T09:59:53.391Z,1001.7
2022-10-13T10:00:53.352Z,1001.67
2022-10-13T10:01:53.374Z,1001.63
2022-10-13T10:02:53.392Z,1001.67
2022-10-13T10:03:53.436Z,1001.62
2022-10-13T10:04:53.450Z,1001.62
2022-10-13T10:05:53.446Z,1001.64
2022-10-13T10:06:53.468Z,1001.62
2022-10-13T10:07:53.485Z,1001.64
2022-10-13T10:09:08.879Z,1001.63
2022-10-13T10:09:53.521Z,1001.62
2022-10-13T10:10:53.544Z,1001.61
2022-10-13T10:11:53.561Z,1001.58
2022-10-13T10:12:53.607Z,1001.57
2022-10-13T10:13:53.595Z,1001.58
2022-10-13T10:14:53.614Z,1001.52
2022-10-13T10:15:53.631Z,1001.51
2022-10-13T10:16:53.655Z,1001.52
2022-10-13T10:17:53.671Z,1001.52
2022-10-13T10:18:57.831Z,1001.51
2022-10-13T10:19:53.710Z,1001.51
2022-10-13T10:20:53.728Z,1001.47
2022-10-13T10:21:53.795Z,1001.55
2022-10-13T10:22:53.775Z,1001.53
2022-10-13T10:23:53.782Z,1001.53
2022-10-13T10:24:53.829Z,1001.53
2022-10-13T10:25:53.819Z,1001.53
2022-10-13T10:26:53.840Z,1001.5
2022-10-13T10:27:53.861Z,1001.49
2022-10-13T10:28:53.929Z,1001.53
2022-10-13T10:29:53.895Z,1001.5
2022-10-13T10:30:53.916Z,1001.49
2022-10-13T10:31:53.937Z,1001.51
2022-10-13T10:32:54.046Z,1001.48
2022-10-13T10:33:53.974Z,1001.46
2022-10-13T10:34:53.995Z,1001.46
2022-10-13T10:35:54.011Z,1001.43
2022-10-13T10:36:54.030Z,1001.34
2022-10-13T10:37:54.047Z,1001.34
2022-10-13T10:38:54.071Z,1001.39
2022-10-13T10:39:54.086Z,1001.36
2022-10-13T10:40:54.297Z,1001.36
2022-10-13T10:41:54.129Z,1001.33
2022-10-13T10:42:54.142Z,1001.36
2022-10-13T10:43:54.161Z,1001.29
2022-10-13T10:44:54.183Z,1001.28
2022-10-13T10:45:54.198Z,1001.3
2022-10-13T10:46:54.217Z,1001.31
2022-10-13T10:47:54.253Z,1001.3
2022-10-13T10:48:54.255Z,1001.25
2022-10-13T10:49:54.284Z,1001.25
2022-10-13T10:50:54.309Z,1001.22
2022-10-13T10:51:54.316Z,1001.21
2022-10-13T10:52:54.335Z,1001.19
2022-10-13T10:53:54.354Z,1001.21
2022-10-13T10:54:54.368Z,1001.17
2022-10-13T10:55:54.390Z,1001.2
2022-10-13T10:56:54.433Z,1001.18
2022-10-13T10:57:54.427Z,1001.16
2022-10-13T10:58:54.444Z,1001.15
2022-10-13T10:59:54.466Z,1001.15
2022-10-13T11:00:54.484Z,1001.17
2022-10-13T11:01:54.552Z,1001.16
2022-10-13T11:02:54.521Z,1001.16
2022-10-13T11:03:54.543Z,1001.15
2022-10-13T11:04:54.565Z,1001.14
2022-10-13T11:05:54.579Z,1001.14
2022-10-13T11:06:54.598Z,1001.06
2022-10-13T11:07:54.619Z,1001.08
2022-10-13T11:08:54.635Z,1001.06
2022-10-13T11:09:54.658Z,1001.03
2022-10-13T11:10:54.674Z,1000.99
2022-10-13T11:11:54.696Z,1001.01
2022-10-13T11:12:54.735Z,1000.97
2022-10-13T11:13:54.772Z,1001.02
2022-10-13T11:14:54.756Z,1000.98
2022-10-13T11:15:54.772Z,1000.98
2022-10-13T11:16:54.789Z,1000.93
2022-10-13T11:17:54.809Z,1000.89
2022-10-13T11:18:54.828Z,1000.9
2022-10-13T11:19:54.851Z,1000.86
2022-10-13T11:20:54.865Z,1000.88
2022-10-13T11:21:55.245Z,1000.9
2022-10-13T11:22:54.907Z,1000.89
2022-10-13T11:23:58.513Z,1000.83
2022-10-13T11:24:54.943Z,1000.85
2022-10-13T11:25:54.965Z,1000.82
2022-10-13T11:26:54.985Z,1000.81
2022-10-13T11:27:55.005Z,1000.8
2022-10-13T11:28:55.090Z,1000.8
2022-10-13T11:29:55.054Z,1000.79
2022-10-13T11:30:55.067Z,1000.8
2022-10-13T11:31:55.077Z,1000.79
2022-10-13T11:32:55.100Z,1000.75
2022-10-13T11:33:55.117Z,1000.72
2022-10-13T11:34:55.141Z,1000.74
2022-10-13T11:35:55.156Z,1000.74
2022-10-13T11:36:55.181Z,1000.69
2022-10-13T11:38:06.609Z,1000.76
2022-10-13T11:38:55.219Z,1000.72
2022-10-13T11:39:55.239Z,1000.66
2022-10-13T11:40:55.259Z,1000.66
2022-10-13T11:41:55.277Z,1000.64
2022-10-13T11:42:56.877Z,1000.63
2022-10-13T11:43:55.313Z,1000.61
2022-10-13T11:44:55.476Z,1000.63
2022-10-13T11:45:55.351Z,1000.6
2022-10-13T11:46:55.379Z,1000.6
2022-10-13T11:47:55.509Z,1000.58
2022-10-13T11:48:55.414Z,1000.58
2022-10-13T11:49:55.430Z,1000.59
2022-10-13T11:50:55.451Z,1000.6
2022-10-13T11:51:55.469Z,1000.54
2022-10-13T11:52:55.490Z,1000.57
2022-10-13T11:53:55.512Z,1000.58
2022-10-13T11:54:55.533Z,1000.56
2022-10-13T11:55:55.546Z,1000.54
2022-10-13T11:56:55.565Z,1000.52
2022-10-13T11:57:55.585Z,1000.53
2022-10-13T11:58:55.607Z,1000.51
2022-10-13T11:59:55.636Z,1000.53
2022-10-13T12:00:55.682Z,1000.47
2022-10-13T12:01:55.661Z,1000.51
2022-10-13T12:02:55.703Z,1000.49
2022-10-13T12:03:55.703Z,1000.49
2022-10-13T12:04:55.722Z,1000.49
2022-10-13T12:05:55.742Z,1000.54
2022-10-13T12:06:55.763Z,1000.48
2022-10-13T12:07:55.778Z,1000.48
2022-10-13T12:08:55.801Z,1000.5
2022-10-13T12:09:55.817Z,1000.46